Strona główna
METAR-TAF:

METAR-TAF

Lotnisko :

Port lotniczy Annecy

Annecy, Francja

Szerokość geograficzna: 45-55-45N, Długość geograficzna: 006-05-56E, wysokość: 463 m

Aktualna obserwacja pogody

Raport powstał 23 minut temu, godzina 06:30 UTC
Cisza
Temperatura 21°C
Wilgotność 83%
Ciśnienie 1023 hPa
Widzialność 10 km lub więcej
Mało chmury na wysokości 6800 ft

METAR: LFLP 210630Z AUTO 00000KT 9999 FEW068 21/18 Q1023 NOSIG

czas: 08:53 (06:53 UTC)

Prognoza

Raport powstał 4 godziny i 53 minut temu, godzina 02:00 UTC
Prognoza ważna od 21 godzina 03 UTC do 22 godzina 03 UTC
Wiatr 9 kt od zachodnio-południowy zachód
Widzialność 10 km lub więcej
Brak chmur poniżej 1500 m i brak chmur cumulonimbus
Przejściowo
od 21 godzina 03 UTC do 21 godzina 15 UTC
Rozproszone chmury na wysokości 6000 ft

TAF: LFLP 210200Z 2103/2203 24009KT CAVOK TEMPO 2103/2115 SCT060

Obserwacja i prognoza pogody dla ponad 4000 lotnisk (raport METAR i TAF).

Dostępne stacje oznaczono żółtymi i czerwonymi punktami na mapie.

Najedź kursorem aby zobaczyć nazwę stacji.

Kliknij aby zobaczyć obserwacje i prognozy pogody.

Aby zmienić mapę: kliknij na zielony przycisk z czarnym krzyżykiem, aby powiększyć; na zielony przycisk z myślnikiem, aby pomniejszyć; na zielone strzałki, aby przejść do map sąsiednich.


METAR-TAF: